TAF Text Data
IDs:
Format:
Raw Decoded Include METAR

Data at: 0726 UTC 16 Oct 2018

KBCE 160653Z AUTO 00000KT 10SM CLR M08/M12 A3031 RMK AO2 SLP241 T10781122 400781078

KBCE 160530Z 1606/1706 05006KT P6SM SKC
  FM161000 27006KT P6SM SKC
  FM161700 07015G25KT P6SM BKN200
  FM170300 34007KT P6SM BKN200